sensor_id;sensor_type;location;lat;lon;timestamp;pressure;altitude;pressure_sealevel;temperature;humidity
17230;BME280;8731;50.364;8.958;2023-03-03T00:00:22;100522.06;;;1.60;64.03
17230;BME280;8731;50.364;8.958;2023-03-03T00:04:44;100534.31;;;1.51;64.27
17230;BME280;8731;50.364;8.958;2023-03-03T00:09:07;100539.06;;;1.37;65.73
17230;BME280;8731;50.364;8.958;2023-03-03T00:13:29;100538.88;;;1.36;65.42
17230;BME280;8731;50.364;8.958;2023-03-03T00:17:54;100539.28;;;1.39;65.25
17230;BME280;8731;50.364;8.958;2023-03-03T00:22:25;100538.38;;;1.26;65.80
17230;BME280;8731;50.364;8.958;2023-03-03T00:26:51;100543.88;;;1.23;66.23
17230;BME280;8731;50.364;8.958;2023-03-03T00:31:17;100549.50;;;0.78;69.12
17230;BME280;8731;50.364;8.958;2023-03-03T00:35:43;100547.69;;;0.96;67.68
17230;BME280;8731;50.364;8.958;2023-03-03T00:40:18;100550.09;;;1.01;67.31
17230;BME280;8731;50.364;8.958;2023-03-03T00:44:44;100545.19;;;0.96;67.12
17230;BME280;8731;50.364;8.958;2023-03-03T00:49:18;100544.28;;;0.95;67.26
17230;BME280;8731;50.364;8.958;2023-03-03T00:53:48;100542.53;;;0.88;66.81
17230;BME280;8731;50.364;8.958;2023-03-03T00:58:11;100553.44;;;0.89;67.12
17230;BME280;8731;50.364;8.958;2023-03-03T01:02:37;100559.38;;;0.89;67.14
17230;BME280;8731;50.364;8.958;2023-03-03T01:07:00;100554.03;;;0.81;67.47
17230;BME280;8731;50.364;8.958;2023-03-03T01:11:25;100548.44;;;0.71;67.89
17230;BME280;8731;50.364;8.958;2023-03-03T01:15:49;100559.22;;;0.64;68.67
17230;BME280;8731;50.364;8.958;2023-03-03T01:20:13;100547.06;;;0.54;68.76
17230;BME280;8731;50.364;8.958;2023-03-03T01:24:36;100546.56;;;0.57;68.70
17230;BME280;8731;50.364;8.958;2023-03-03T01:29:00;100540.94;;;0.52;68.79
17230;BME280;8731;50.364;8.958;2023-03-03T01:33:22;100541.22;;;0.48;68.53
17230;BME280;8731;50.364;8.958;2023-03-03T01:37:44;100546.22;;;0.48;68.39
17230;BME280;8731;50.364;8.958;2023-03-03T01:42:07;100550.78;;;0.45;68.58
17230;BME280;8731;50.364;8.958;2023-03-03T01:46:43;100546.28;;;0.43;68.70
17230;BME280;8731;50.364;8.958;2023-03-03T01:51:16;100545.03;;;0.34;69.64
17230;BME280;8731;50.364;8.958;2023-03-03T01:55:44;100543.97;;;0.26;69.56
17230;BME280;8731;50.364;8.958;2023-03-03T02:00:10;100542.06;;;0.12;70.38
17230;BME280;8731;50.364;8.958;2023-03-03T02:04:35;100545.69;;;0.14;70.28
17230;BME280;8731;50.364;8.958;2023-03-03T02:09:03;100539.34;;;0.11;70.37
17230;BME280;8731;50.364;8.958;2023-03-03T02:13:30;100545.75;;;0.09;70.49
17230;BME280;8731;50.364;8.958;2023-03-03T02:17:54;100550.00;;;-0.09;70.42
17230;BME280;8731;50.364;8.958;2023-03-03T02:22:25;100548.13;;;-0.04;70.55
17230;BME280;8731;50.364;8.958;2023-03-03T02:26:55;100559.47;;;-0.01;70.23
17230;BME280;8731;50.364;8.958;2023-03-03T02:31:20;100547.50;;;-0.09;70.71
17230;BME280;8731;50.364;8.958;2023-03-03T02:35:43;100554.09;;;-0.09;70.88
17230;BME280;8731;50.364;8.958;2023-03-03T02:40:07;100555.28;;;-0.13;71.05
17230;BME280;8731;50.364;8.958;2023-03-03T02:44:33;100560.34;;;-0.18;71.43
17230;BME280;8731;50.364;8.958;2023-03-03T02:48:57;100557.19;;;-0.23;71.30
17230;BME280;8731;50.364;8.958;2023-03-03T02:53:19;100559.66;;;-0.47;73.07
17230;BME280;8731;50.364;8.958;2023-03-03T02:57:41;100561.50;;;-0.51;73.84
17230;BME280;8731;50.364;8.958;2023-03-03T03:02:05;100552.13;;;-0.41;73.22
17230;BME280;8731;50.364;8.958;2023-03-03T03:06:28;100543.28;;;-0.45;72.51
17230;BME280;8731;50.364;8.958;2023-03-03T03:10:51;100554.41;;;-0.43;72.20
17230;BME280;8731;50.364;8.958;2023-03-03T03:15:13;100560.56;;;-0.46;72.25
17230;BME280;8731;50.364;8.958;2023-03-03T03:19:37;100564.69;;;-0.52;72.98
17230;BME280;8731;50.364;8.958;2023-03-03T03:24:00;100573.63;;;-0.60;72.77
17230;BME280;8731;50.364;8.958;2023-03-03T03:28:23;100572.75;;;-0.72;73.45
17230;BME280;8731;50.364;8.958;2023-03-03T03:32:46;100571.66;;;-0.74;72.91
17230;BME280;8731;50.364;8.958;2023-03-03T03:37:10;100573.72;;;-0.77;73.16
17230;BME280;8731;50.364;8.958;2023-03-03T03:41:35;100573.28;;;-0.80;72.99
17230;BME280;8731;50.364;8.958;2023-03-03T03:45:58;100584.91;;;-0.86;74.04
17230;BME280;8731;50.364;8.958;2023-03-03T03:50:20;100585.38;;;-0.88;73.83
17230;BME280;8731;50.364;8.958;2023-03-03T03:54:44;100583.84;;;-0.94;73.88
17230;BME280;8731;50.364;8.958;2023-03-03T03:59:07;100578.84;;;-0.99;74.43
17230;BME280;8731;50.364;8.958;2023-03-03T04:03:30;100582.50;;;-1.03;74.68
17230;BME280;8731;50.364;8.958;2023-03-03T04:07:53;100589.34;;;-1.07;74.25
17230;BME280;8731;50.364;8.958;2023-03-03T04:12:17;100574.38;;;-1.18;74.96
17230;BME280;8731;50.364;8.958;2023-03-03T04:16:40;100580.28;;;-1.12;74.83
17230;BME280;8731;50.364;8.958;2023-03-03T04:21:04;100588.69;;;-1.12;74.55
17230;BME280;8731;50.364;8.958;2023-03-03T04:25:27;100587.53;;;-1.08;74.56
17230;BME280;8731;50.364;8.958;2023-03-03T04:29:51;100587.13;;;-1.23;76.16
17230;BME280;8731;50.364;8.958;2023-03-03T04:34:13;100584.84;;;-1.15;75.29
17230;BME280;8731;50.364;8.958;2023-03-03T04:38:37;100592.13;;;-1.23;74.95
17230;BME280;8731;50.364;8.958;2023-03-03T04:43:00;100597.34;;;-1.27;76.55
17230;BME280;8731;50.364;8.958;2023-03-03T04:47:25;100604.47;;;-1.41;76.16
17230;BME280;8731;50.364;8.958;2023-03-03T04:51:48;100610.41;;;-1.63;78.72
17230;BME280;8731;50.364;8.958;2023-03-03T04:56:11;100602.22;;;-1.50;77.30
17230;BME280;8731;50.364;8.958;2023-03-03T05:00:33;100607.63;;;-1.47;76.16
17230;BME280;8731;50.364;8.958;2023-03-03T05:04:58;100605.84;;;-1.54;75.76
17230;BME280;8731;50.364;8.958;2023-03-03T05:09:20;100619.03;;;-1.55;76.52
17230;BME280;8731;50.364;8.958;2023-03-03T05:13:42;100616.06;;;-1.58;76.21
17230;BME280;8731;50.364;8.958;2023-03-03T05:18:05;100612.44;;;-1.55;76.14
17230;BME280;8731;50.364;8.958;2023-03-03T05:22:30;100610.63;;;-1.56;76.61
17230;BME280;8731;50.364;8.958;2023-03-03T05:26:52;100606.31;;;-1.57;76.02
17230;BME280;8731;50.364;8.958;2023-03-03T05:31:14;100610.16;;;-1.53;76.38
17230;BME280;8731;50.364;8.958;2023-03-03T05:36:00;100614.94;;;-1.55;76.20
17230;BME280;8731;50.364;8.958;2023-03-03T05:40:24;100617.22;;;-1.56;76.37
17230;BME280;8731;50.364;8.958;2023-03-03T05:44:47;100620.41;;;-1.91;79.74
17230;BME280;8731;50.364;8.958;2023-03-03T05:49:09;100639.91;;;-1.71;78.75
17230;BME280;8731;50.364;8.958;2023-03-03T05:53:31;100634.06;;;-1.89;79.37
17230;BME280;8731;50.364;8.958;2023-03-03T05:57:57;100646.28;;;-1.96;78.24
17230;BME280;8731;50.364;8.958;2023-03-03T06:02:19;100642.66;;;-1.92;78.61
17230;BME280;8731;50.364;8.958;2023-03-03T06:06:42;100648.13;;;-1.89;78.24
17230;BME280;8731;50.364;8.958;2023-03-03T06:11:04;100649.25;;;-1.87;77.53
17230;BME280;8731;50.364;8.958;2023-03-03T06:15:28;100660.81;;;-1.88;76.85
17230;BME280;8731;50.364;8.958;2023-03-03T06:19:51;100663.53;;;-1.86;77.12
17230;BME280;8731;50.364;8.958;2023-03-03T06:24:13;100671.25;;;-1.84;77.45
17230;BME280;8731;50.364;8.958;2023-03-03T06:28:35;100675.75;;;-1.76;77.72
17230;BME280;8731;50.364;8.958;2023-03-03T06:32:59;100676.22;;;-1.73;77.65
17230;BME280;8731;50.364;8.958;2023-03-03T06:37:21;100681.41;;;-1.66;77.59
17230;BME280;8731;50.364;8.958;2023-03-03T06:41:43;100701.63;;;-1.59;77.75
17230;BME280;8731;50.364;8.958;2023-03-03T06:46:06;100710.22;;;-1.51;78.32
17230;BME280;8731;50.364;8.958;2023-03-03T06:50:29;100719.75;;;-1.49;79.28
17230;BME280;8731;50.364;8.958;2023-03-03T06:54:53;100716.56;;;-1.42;80.21
17230;BME280;8731;50.364;8.958;2023-03-03T06:59:20;100725.66;;;-1.32;79.37
17230;BME280;8731;50.364;8.958;2023-03-03T07:03:43;100737.91;;;-1.16;79.41
17230;BME280;8731;50.364;8.958;2023-03-03T07:08:13;100725.53;;;-0.87;80.23
17230;BME280;8731;50.364;8.958;2023-03-03T07:12:37;100726.75;;;-0.44;78.82
17230;BME280;8731;50.364;8.958;2023-03-03T07:17:01;100736.97;;;-0.08;78.08
17230;BME280;8731;50.364;8.958;2023-03-03T07:21:32;100731.69;;;0.32;77.84
17230;BME280;8731;50.364;8.958;2023-03-03T07:25:56;100748.09;;;0.83;76.91
17230;BME280;8731;50.364;8.958;2023-03-03T07:30:25;100745.72;;;1.14;76.25
17230;BME280;8731;50.364;8.958;2023-03-03T07:34:51;100743.56;;;1.59;76.19
17230;BME280;8731;50.364;8.958;2023-03-03T07:39:25;100735.53;;;2.11;75.41
17230;BME280;8731;50.364;8.958;2023-03-03T07:43:53;100742.84;;;2.53;74.24
17230;BME280;8731;50.364;8.958;2023-03-03T07:48:24;100744.75;;;3.25;72.92
17230;BME280;8731;50.364;8.958;2023-03-03T07:52:55;100745.31;;;3.75;71.26
17230;BME280;8731;50.364;8.958;2023-03-03T07:57:23;100741.38;;;4.56;71.54
17230;BME280;8731;50.364;8.958;2023-03-03T08:01:51;100745.16;;;4.52;69.92
17230;BME280;8731;50.364;8.958;2023-03-03T08:06:30;100747.16;;;4.89;69.50
17230;BME280;8731;50.364;8.958;2023-03-03T08:11:02;100741.72;;;5.20;68.17
17230;BME280;8731;50.364;8.958;2023-03-03T08:15:30;100738.69;;;5.71;66.76
17230;BME280;8731;50.364;8.958;2023-03-03T08:19:58;100741.03;;;5.69;66.52
17230;BME280;8731;50.364;8.958;2023-03-03T08:24:20;100747.13;;;5.57;65.95
17230;BME280;8731;50.364;8.958;2023-03-03T08:28:42;100738.19;;;6.94;64.75
17230;BME280;8731;50.364;8.958;2023-03-03T08:33:05;100735.16;;;7.27;62.45
17230;BME280;8731;50.364;8.958;2023-03-03T08:37:29;100726.75;;;8.09;62.28
17230;BME280;8731;50.364;8.958;2023-03-03T08:41:51;100726.19;;;8.57;61.80
17230;BME280;8731;50.364;8.958;2023-03-03T08:46:13;100726.97;;;8.88;60.87
17230;BME280;8731;50.364;8.958;2023-03-03T08:50:36;100738.34;;;9.54;59.99
17230;BME280;8731;50.364;8.958;2023-03-03T08:55:00;100730.78;;;9.88;58.15
17230;BME280;8731;50.364;8.958;2023-03-03T08:59:22;100737.22;;;10.17;56.94
17230;BME280;8731;50.364;8.958;2023-03-03T09:03:44;100731.78;;;10.63;56.36
17230;BME280;8731;50.364;8.958;2023-03-03T09:08:07;100724.81;;;10.86;54.93
17230;BME280;8731;50.364;8.958;2023-03-03T09:12:33;100726.53;;;11.29;53.72
17230;BME280;8731;50.364;8.958;2023-03-03T09:16:58;100726.78;;;10.89;52.40
17230;BME280;8731;50.364;8.958;2023-03-03T09:21:24;100731.59;;;11.03;52.24
17230;BME280;8731;50.364;8.958;2023-03-03T09:25:52;100731.03;;;10.64;52.53
17230;BME280;8731;50.364;8.958;2023-03-03T09:30:36;100732.47;;;10.95;52.32
17230;BME280;8731;50.364;8.958;2023-03-03T09:35:25;100732.34;;;11.11;51.41
17230;BME280;8731;50.364;8.958;2023-03-03T09:39:56;100713.84;;;12.80;49.97
17230;BME280;8731;50.364;8.958;2023-03-03T09:44:46;100726.91;;;12.83;48.66
17230;BME280;8731;50.364;8.958;2023-03-03T09:49:30;100744.22;;;11.71;49.26
17230;BME280;8731;50.364;8.958;2023-03-03T09:54:03;100751.06;;;12.23;49.69
17230;BME280;8731;50.364;8.958;2023-03-03T09:58:47;100753.06;;;13.55;48.84
17230;BME280;8731;50.364;8.958;2023-03-03T10:08:45;100750.75;;;13.20;46.45
17230;BME280;8731;50.364;8.958;2023-03-03T10:13:25;100746.41;;;13.38;46.87
17230;BME280;8731;50.364;8.958;2023-03-03T10:18:10;100750.78;;;13.76;45.38
17230;BME280;8731;50.364;8.958;2023-03-03T10:22:46;100752.94;;;14.01;45.99
17230;BME280;8731;50.364;8.958;2023-03-03T10:27:29;100758.56;;;14.26;44.38
17230;BME280;8731;50.364;8.958;2023-03-03T10:32:28;100753.44;;;14.36;44.29
17230;BME280;8731;50.364;8.958;2023-03-03T10:36:57;100760.25;;;14.06;44.11
17230;BME280;8731;50.364;8.958;2023-03-03T10:46:33;100764.00;;;12.88;43.70
17230;BME280;8731;50.364;8.958;2023-03-03T10:51:17;100755.91;;;14.73;43.39
17230;BME280;8731;50.364;8.958;2023-03-03T10:55:54;100752.66;;;14.56;42.14
17230;BME280;8731;50.364;8.958;2023-03-03T11:00:30;100754.50;;;13.61;41.66
17230;BME280;8731;50.364;8.958;2023-03-03T11:05:28;100748.59;;;14.88;42.45
17230;BME280;8731;50.364;8.958;2023-03-03T11:10:04;100745.38;;;14.31;41.90
17230;BME280;8731;50.364;8.958;2023-03-03T11:14:43;100744.63;;;14.42;41.71
17230;BME280;8731;50.364;8.958;2023-03-03T11:19:27;100734.06;;;14.58;41.61
17230;BME280;8731;50.364;8.958;2023-03-03T11:24:14;100745.56;;;13.85;43.10
17230;BME280;8731;50.364;8.958;2023-03-03T11:28:58;100743.31;;;13.32;42.59
17230;BME280;8731;50.364;8.958;2023-03-03T11:33:36;100726.78;;;15.96;41.22
17230;BME280;8731;50.364;8.958;2023-03-03T11:38:17;100730.91;;;15.12;41.01
17230;BME280;8731;50.364;8.958;2023-03-03T11:43:00;100719.94;;;16.95;39.88
17230;BME280;8731;50.364;8.958;2023-03-03T11:47:33;100720.78;;;16.18;38.74
17230;BME280;8731;50.364;8.958;2023-03-03T11:52:11;100715.19;;;16.12;40.71
17230;BME280;8731;50.364;8.958;2023-03-03T11:56:44;100694.81;;;17.26;38.06
17230;BME280;8731;50.364;8.958;2023-03-03T12:01:15;100704.78;;;15.58;37.51
17230;BME280;8731;50.364;8.958;2023-03-03T12:05:49;100705.94;;;14.39;40.57
17230;BME280;8731;50.364;8.958;2023-03-03T12:10:21;100677.06;;;17.29;39.20
17230;BME280;8731;50.364;8.958;2023-03-03T12:14:56;100671.34;;;17.56;37.79
17230;BME280;8731;50.364;8.958;2023-03-03T12:19:30;100680.16;;;16.46;38.48
17230;BME280;8731;50.364;8.958;2023-03-03T12:24:28;100663.94;;;17.96;38.39
17230;BME280;8731;50.364;8.958;2023-03-03T12:28:59;100673.94;;;16.32;40.26
17230;BME280;8731;50.364;8.958;2023-03-03T12:33:36;100668.88;;;17.23;39.25
17230;BME280;8731;50.364;8.958;2023-03-03T12:38:24;100658.72;;;17.83;38.56
17230;BME280;8731;50.364;8.958;2023-03-03T12:43:06;100645.03;;;18.20;37.26
17230;BME280;8731;50.364;8.958;2023-03-03T12:47:41;100640.69;;;17.59;38.41
17230;BME280;8731;50.364;8.958;2023-03-03T12:52:21;100641.81;;;17.28;37.82
17230;BME280;8731;50.364;8.958;2023-03-03T12:56:54;100649.16;;;15.36;39.83
17230;BME280;8731;50.364;8.958;2023-03-03T13:01:28;100643.38;;;16.13;39.80
17230;BME280;8731;50.364;8.958;2023-03-03T13:06:06;100637.22;;;16.67;39.85
17230;BME280;8731;50.364;8.958;2023-03-03T13:10:40;100636.41;;;17.48;39.38
17230;BME280;8731;50.364;8.958;2023-03-03T13:15:14;100622.31;;;17.55;38.34
17230;BME280;8731;50.364;8.958;2023-03-03T13:19:45;100637.09;;;17.10;38.53
17230;BME280;8731;50.364;8.958;2023-03-03T13:24:17;100634.25;;;16.07;40.25
17230;BME280;8731;50.364;8.958;2023-03-03T13:28:55;100636.72;;;16.27;40.46
17230;BME280;8731;50.364;8.958;2023-03-03T13:33:24;100636.72;;;14.19;42.19
17230;BME280;8731;50.364;8.958;2023-03-03T13:37:52;100635.25;;;13.15;44.86
17230;BME280;8731;50.364;8.958;2023-03-03T13:42:20;100625.69;;;14.69;42.18
17230;BME280;8731;50.364;8.958;2023-03-03T13:46:51;100635.66;;;13.58;44.58
17230;BME280;8731;50.364;8.958;2023-03-03T13:51:31;100636.84;;;12.12;46.20
17230;BME280;8731;50.364;8.958;2023-03-03T13:56:11;100621.00;;;13.46;44.91
17230;BME280;8731;50.364;8.958;2023-03-03T14:00:53;100620.91;;;12.88;45.92
17230;BME280;8731;50.364;8.958;2023-03-03T14:05:25;100622.91;;;12.36;46.82
17230;BME280;8731;50.364;8.958;2023-03-03T14:09:59;100615.53;;;12.03;48.59
17230;BME280;8731;50.364;8.958;2023-03-03T14:14:37;100610.56;;;12.41;46.89
17230;BME280;8731;50.364;8.958;2023-03-03T14:19:13;100617.66;;;11.28;48.90
17230;BME280;8731;50.364;8.958;2023-03-03T14:23:50;100610.78;;;11.18;50.23
17230;BME280;8731;50.364;8.958;2023-03-03T14:28:21;100620.06;;;11.09;49.72
17230;BME280;8731;50.364;8.958;2023-03-03T14:32:58;100610.78;;;11.18;49.74
17230;BME280;8731;50.364;8.958;2023-03-03T14:37:42;100621.56;;;10.72;50.83
17230;BME280;8731;50.364;8.958;2023-03-03T14:42:11;100616.91;;;10.60;51.29
17230;BME280;8731;50.364;8.958;2023-03-03T14:46:38;100628.91;;;9.86;52.88
17230;BME280;8731;50.364;8.958;2023-03-03T14:51:16;100622.16;;;10.70;50.86
17230;BME280;8731;50.364;8.958;2023-03-03T14:55:46;100615.97;;;10.00;53.12
17230;BME280;8731;50.364;8.958;2023-03-03T15:00:27;100612.19;;;10.21;52.46
17230;BME280;8731;50.364;8.958;2023-03-03T15:05:11;100608.50;;;10.10;52.96
17230;BME280;8731;50.364;8.958;2023-03-03T15:09:39;100613.84;;;9.63;53.89
17230;BME280;8731;50.364;8.958;2023-03-03T15:14:11;100608.13;;;9.90;53.21
17230;BME280;8731;50.364;8.958;2023-03-03T15:18:54;100608.56;;;9.29;54.79
17230;BME280;8731;50.364;8.958;2023-03-03T15:23:43;100613.56;;;9.69;55.85
17230;BME280;8731;50.364;8.958;2023-03-03T15:28:21;100619.28;;;9.75;53.92
17230;BME280;8731;50.364;8.958;2023-03-03T15:32:59;100618.78;;;9.21;55.24
17230;BME280;8731;50.364;8.958;2023-03-03T15:37:35;100608.31;;;9.18;55.05
17230;BME280;8731;50.364;8.958;2023-03-03T15:42:09;100605.78;;;9.18;55.19
17230;BME280;8731;50.364;8.958;2023-03-03T15:46:45;100613.44;;;8.87;56.11
17230;BME280;8731;50.364;8.958;2023-03-03T15:51:56;100605.94;;;8.80;56.46
17230;BME280;8731;50.364;8.958;2023-03-03T15:56:36;100612.47;;;8.46;58.02
17230;BME280;8731;50.364;8.958;2023-03-03T16:01:12;100615.75;;;8.61;57.25
17230;BME280;8731;50.364;8.958;2023-03-03T16:05:48;100613.53;;;8.48;57.95
17230;BME280;8731;50.364;8.958;2023-03-03T16:10:20;100620.03;;;8.53;57.18
17230;BME280;8731;50.364;8.958;2023-03-03T16:15:02;100612.81;;;8.65;56.84
17230;BME280;8731;50.364;8.958;2023-03-03T16:19:45;100626.91;;;8.54;57.21
17230;BME280;8731;50.364;8.958;2023-03-03T16:24:22;100621.53;;;8.28;58.03
17230;BME280;8731;50.364;8.958;2023-03-03T16:29:02;100622.31;;;8.20;58.37
17230;BME280;8731;50.364;8.958;2023-03-03T16:33:37;100622.31;;;8.20;58.62
17230;BME280;8731;50.364;8.958;2023-03-03T16:38:13;100629.50;;;8.09;58.33
17230;BME280;8731;50.364;8.958;2023-03-03T16:42:43;100638.56;;;8.07;58.69
17230;BME280;8731;50.364;8.958;2023-03-03T16:47:20;100642.09;;;7.93;58.84
17230;BME280;8731;50.364;8.958;2023-03-03T16:51:55;100642.59;;;7.52;60.29
17230;BME280;8731;50.364;8.958;2023-03-03T16:56:32;100654.66;;;7.61;59.60
17230;BME280;8731;50.364;8.958;2023-03-03T17:01:07;100668.13;;;7.46;60.20
17230;BME280;8731;50.364;8.958;2023-03-03T17:05:42;100669.94;;;7.47;59.51
17230;BME280;8731;50.364;8.958;2023-03-03T17:10:20;100675.63;;;7.30;60.28
17230;BME280;8731;50.364;8.958;2023-03-03T17:14:58;100671.69;;;7.25;60.19
17230;BME280;8731;50.364;8.958;2023-03-03T17:19:43;100678.56;;;6.75;61.06
17230;BME280;8731;50.364;8.958;2023-03-03T17:24:21;100684.00;;;6.71;61.42
17230;BME280;8731;50.364;8.958;2023-03-03T17:29:05;100688.47;;;6.81;60.96
17230;BME280;8731;50.364;8.958;2023-03-03T17:33:54;100703.00;;;6.67;60.64
17230;BME280;8731;50.364;8.958;2023-03-03T17:38:37;100710.22;;;6.64;60.54
17230;BME280;8731;50.364;8.958;2023-03-03T17:43:14;100719.84;;;6.17;63.58
17230;BME280;8731;50.364;8.958;2023-03-03T17:47:46;100721.25;;;6.15;62.68
17230;BME280;8731;50.364;8.958;2023-03-03T17:52:36;100728.66;;;6.06;63.30
17230;BME280;8731;50.364;8.958;2023-03-03T17:57:20;100730.47;;;6.07;63.45
17230;BME280;8731;50.364;8.958;2023-03-03T18:02:02;100732.69;;;5.63;65.12
17230;BME280;8731;50.364;8.958;2023-03-03T18:07:20;100731.25;;;5.51;66.17
17230;BME280;8731;50.364;8.958;2023-03-03T18:12:03;100736.47;;;5.52;65.06
17230;BME280;8731;50.364;8.958;2023-03-03T18:16:45;100740.78;;;5.05;67.92
17230;BME280;8731;50.364;8.958;2023-03-03T18:21:28;100743.78;;;4.96;67.92
17230;BME280;8731;50.364;8.958;2023-03-03T18:25:59;100752.25;;;4.96;68.05
17230;BME280;8731;50.364;8.958;2023-03-03T18:30:25;100755.75;;;5.11;67.14
17230;BME280;8731;50.364;8.958;2023-03-03T18:40:21;100766.22;;;4.80;67.61
17230;BME280;8731;50.364;8.958;2023-03-03T18:44:53;100771.53;;;4.69;68.11
17230;BME280;8731;50.364;8.958;2023-03-03T18:49:16;100765.69;;;4.55;70.08
17230;BME280;8731;50.364;8.958;2023-03-03T18:53:58;100779.34;;;4.50;68.56
17230;BME280;8731;50.364;8.958;2023-03-03T18:58:35;100781.53;;;4.35;70.10
17230;BME280;8731;50.364;8.958;2023-03-03T19:03:02;100778.44;;;4.30;70.20
17230;BME280;8731;50.364;8.958;2023-03-03T19:07:50;100784.59;;;4.32;69.75
17230;BME280;8731;50.364;8.958;2023-03-03T19:12:17;100783.59;;;4.24;69.36
17230;BME280;8731;50.364;8.958;2023-03-03T19:22:24;100786.44;;;4.20;68.32
17230;BME280;8731;50.364;8.958;2023-03-03T19:27:15;100790.81;;;3.89;69.62
17230;BME280;8731;50.364;8.958;2023-03-03T19:31:52;100796.59;;;3.75;70.92
17230;BME280;8731;50.364;8.958;2023-03-03T19:36:46;100795.69;;;3.75;70.96
17230;BME280;8731;50.364;8.958;2023-03-03T19:41:40;100801.94;;;3.71;70.63
17230;BME280;8731;50.364;8.958;2023-03-03T19:46:24;100812.78;;;3.77;69.48
17230;BME280;8731;50.364;8.958;2023-03-03T19:51:00;100807.81;;;3.64;70.24
17230;BME280;8731;50.364;8.958;2023-03-03T19:55:36;100817.28;;;3.60;71.23
17230;BME280;8731;50.364;8.958;2023-03-03T20:00:19;100806.22;;;3.52;70.07
17230;BME280;8731;50.364;8.958;2023-03-03T20:04:56;100809.75;;;3.47;71.43
17230;BME280;8731;50.364;8.958;2023-03-03T20:09:32;100814.31;;;3.37;70.80
17230;BME280;8731;50.364;8.958;2023-03-03T20:14:06;100816.69;;;3.30;70.03
17230;BME280;8731;50.364;8.958;2023-03-03T20:18:44;100821.66;;;3.23;70.38
17230;BME280;8731;50.364;8.958;2023-03-03T20:23:22;100828.91;;;3.14;70.99
17230;BME280;8731;50.364;8.958;2023-03-03T20:27:57;100835.94;;;3.04;71.16
17230;BME280;8731;50.364;8.958;2023-03-03T20:32:33;100834.63;;;3.00;70.73
17230;BME280;8731;50.364;8.958;2023-03-03T20:37:12;100839.44;;;2.86;71.82
17230;BME280;8731;50.364;8.958;2023-03-03T20:41:55;100840.53;;;2.75;71.04
17230;BME280;8731;50.364;8.958;2023-03-03T20:46:33;100850.69;;;2.70;73.10
17230;BME280;8731;50.364;8.958;2023-03-03T20:51:06;100854.34;;;2.54;70.10
17230;BME280;8731;50.364;8.958;2023-03-03T20:55:42;100862.78;;;2.54;71.92
17230;BME280;8731;50.364;8.958;2023-03-03T21:00:14;100859.47;;;2.48;73.28
17230;BME280;8731;50.364;8.958;2023-03-03T21:04:42;100863.16;;;2.44;72.62
17230;BME280;8731;50.364;8.958;2023-03-03T21:09:04;100862.59;;;2.34;74.11
17230;BME280;8731;50.364;8.958;2023-03-03T21:13:33;100860.38;;;2.30;74.60
17230;BME280;8731;50.364;8.958;2023-03-03T21:18:18;100854.56;;;2.06;76.35
17230;BME280;8731;50.364;8.958;2023-03-03T21:22:43;100862.66;;;1.98;77.20
17230;BME280;8731;50.364;8.958;2023-03-03T21:27:23;100862.66;;;1.98;76.74
17230;BME280;8731;50.364;8.958;2023-03-03T21:31:49;100864.13;;;1.90;76.38
17230;BME280;8731;50.364;8.958;2023-03-03T21:36:15;100867.31;;;1.89;75.53
17230;BME280;8731;50.364;8.958;2023-03-03T21:40:38;100864.31;;;1.73;76.65
17230;BME280;8731;50.364;8.958;2023-03-03T21:45:08;100865.03;;;1.72;76.51
17230;BME280;8731;50.364;8.958;2023-03-03T21:49:33;100874.63;;;1.69;77.02
17230;BME280;8731;50.364;8.958;2023-03-03T21:53:56;100874.06;;;1.59;77.93
17230;BME280;8731;50.364;8.958;2023-03-03T21:58:18;100875.88;;;1.60;77.92
17230;BME280;8731;50.364;8.958;2023-03-03T22:02:41;100880.88;;;1.60;77.54
17230;BME280;8731;50.364;8.958;2023-03-03T22:07:04;100889.16;;;1.53;77.21
17230;BME280;8731;50.364;8.958;2023-03-03T22:11:26;100887.00;;;1.62;77.17
17230;BME280;8731;50.364;8.958;2023-03-03T22:15:49;100880.66;;;1.59;76.38
17230;BME280;8731;50.364;8.958;2023-03-03T22:20:12;100884.63;;;1.51;76.52
17230;BME280;8731;50.364;8.958;2023-03-03T22:24:36;100888.16;;;1.40;77.43
17230;BME280;8731;50.364;8.958;2023-03-03T22:28:59;100889.22;;;1.48;76.09
17230;BME280;8731;50.364;8.958;2023-03-03T22:33:22;100890.22;;;1.43;76.34
17230;BME280;8731;50.364;8.958;2023-03-03T22:37:44;100901.59;;;1.41;75.86
17230;BME280;8731;50.364;8.958;2023-03-03T22:42:08;100894.84;;;1.34;77.94
17230;BME280;8731;50.364;8.958;2023-03-03T22:46:31;100898.09;;;1.28;78.13
17230;BME280;8731;50.364;8.958;2023-03-03T22:50:53;100902.84;;;1.32;77.46
17230;BME280;8731;50.364;8.958;2023-03-03T22:55:16;100893.50;;;1.31;77.71
17230;BME280;8731;50.364;8.958;2023-03-03T22:59:40;100897.47;;;1.17;79.01
17230;BME280;8731;50.364;8.958;2023-03-03T23:04:02;100898.16;;;1.22;79.26
17230;BME280;8731;50.364;8.958;2023-03-03T23:08:25;100894.03;;;1.22;78.84
17230;BME280;8731;50.364;8.958;2023-03-03T23:12:47;100898.34;;;0.94;80.48
17230;BME280;8731;50.364;8.958;2023-03-03T23:17:11;100889.09;;;1.11;78.96
17230;BME280;8731;50.364;8.958;2023-03-03T23:21:33;100894.13;;;1.11;78.71
17230;BME280;8731;50.364;8.958;2023-03-03T23:25:56;100886.19;;;1.08;78.34
17230;BME280;8731;50.364;8.958;2023-03-03T23:30:19;100894.66;;;1.03;78.20
17230;BME280;8731;50.364;8.958;2023-03-03T23:34:43;100891.47;;;0.75;79.51
17230;BME280;8731;50.364;8.958;2023-03-03T23:39:05;100891.78;;;0.89;78.38
17230;BME280;8731;50.364;8.958;2023-03-03T23:43:28;100892.50;;;0.88;77.72
17230;BME280;8731;50.364;8.958;2023-03-03T23:47:50;100893.94;;;0.80;78.10
17230;BME280;8731;50.364;8.958;2023-03-03T23:52:14;100902.66;;;0.66;78.85
17230;BME280;8731;50.364;8.958;2023-03-03T23:56:37;100905.81;;;0.70;78.31
